sensor_id;sensor_type;location;lat;lon;timestamp;P1;durP1;ratioP1;P2;durP2;ratioP2
23449;SDS011;11897;45.438;12.128;2022-09-13T00:00:15;0.43;;;0.30;;
23449;SDS011;11897;45.438;12.128;2022-09-13T00:02:43;0.30;;;0.30;;
23449;SDS011;11897;45.438;12.128;2022-09-13T00:05:09;0.30;;;0.30;;
23449;SDS011;11897;45.438;12.128;2022-09-13T00:07:36;1.20;;;0.30;;
23449;SDS011;11897;45.438;12.128;2022-09-13T00:10:03;0.83;;;0.40;;
23449;SDS011;11897;45.438;12.128;2022-09-13T00:12:30;0.40;;;0.27;;
23449;SDS011;11897;45.438;12.128;2022-09-13T00:14:57;0.30;;;0.30;;
23449;SDS011;11897;45.438;12.128;2022-09-13T00:17:24;0.67;;;0.37;;
23449;SDS011;11897;45.438;12.128;2022-09-13T00:19:53;0.30;;;0.30;;
23449;SDS011;11897;45.438;12.128;2022-09-13T00:22:19;1.03;;;0.37;;
23449;SDS011;11897;45.438;12.128;2022-09-13T00:24:46;0.50;;;0.40;;
23449;SDS011;11897;45.438;12.128;2022-09-13T00:27:13;0.83;;;0.40;;
23449;SDS011;11897;45.438;12.128;2022-09-13T00:29:39;0.70;;;0.30;;
23449;SDS011;11897;45.438;12.128;2022-09-13T00:32:06;0.20;;;0.20;;
23449;SDS011;11897;45.438;12.128;2022-09-13T00:34:32;0.63;;;0.53;;
23449;SDS011;11897;45.438;12.128;2022-09-13T00:37:00;0.63;;;0.43;;
23449;SDS011;11897;45.438;12.128;2022-09-13T00:39:27;1.10;;;0.50;;
23449;SDS011;11897;45.438;12.128;2022-09-13T00:41:53;1.23;;;0.73;;
23449;SDS011;11897;45.438;12.128;2022-09-13T00:47:05;0.67;;;0.40;;
23449;SDS011;11897;45.438;12.128;2022-09-13T00:49:34;1.10;;;0.50;;
23449;SDS011;11897;45.438;12.128;2022-09-13T00:52:04;0.40;;;0.40;;
23449;SDS011;11897;45.438;12.128;2022-09-13T00:54:33;0.40;;;0.40;;
23449;SDS011;11897;45.438;12.128;2022-09-13T00:57:01;0.67;;;0.50;;
23449;SDS011;11897;45.438;12.128;2022-09-13T00:59:29;0.60;;;0.50;;
23449;SDS011;11897;45.438;12.128;2022-09-13T01:01:56;5.60;;;0.70;;
23449;SDS011;11897;45.438;12.128;2022-09-13T01:04:24;0.43;;;0.43;;
23449;SDS011;11897;45.438;12.128;2022-09-13T01:06:53;0.53;;;0.40;;
23449;SDS011;11897;45.438;12.128;2022-09-13T01:09:23;0.30;;;0.30;;
23449;SDS011;11897;45.438;12.128;2022-09-13T01:11:50;0.60;;;0.60;;
23449;SDS011;11897;45.438;12.128;2022-09-13T01:14:25;0.60;;;0.50;;
23449;SDS011;11897;45.438;12.128;2022-09-13T01:16:52;0.70;;;0.67;;
23449;SDS011;11897;45.438;12.128;2022-09-13T01:19:19;0.67;;;0.40;;
23449;SDS011;11897;45.438;12.128;2022-09-13T01:21:51;0.50;;;0.47;;
23449;SDS011;11897;45.438;12.128;2022-09-13T01:30:05;1.13;;;0.70;;
23449;SDS011;11897;45.438;12.128;2022-09-13T01:32:34;0.60;;;0.57;;
23449;SDS011;11897;45.438;12.128;2022-09-13T01:35:07;0.30;;;0.30;;
23449;SDS011;11897;45.438;12.128;2022-09-13T01:37:39;0.73;;;0.60;;
23449;SDS011;11897;45.438;12.128;2022-09-13T01:40:10;0.70;;;0.40;;
23449;SDS011;11897;45.438;12.128;2022-09-13T01:42:52;0.80;;;0.50;;
23449;SDS011;11897;45.438;12.128;2022-09-13T01:45:27;2.30;;;0.70;;
23449;SDS011;11897;45.438;12.128;2022-09-13T01:47:57;1.17;;;0.93;;
23449;SDS011;11897;45.438;12.128;2022-09-13T01:50:28;1.07;;;0.70;;
23449;SDS011;11897;45.438;12.128;2022-09-13T01:52:58;0.50;;;0.50;;
23449;SDS011;11897;45.438;12.128;2022-09-13T01:55:29;0.83;;;0.80;;
23449;SDS011;11897;45.438;12.128;2022-09-13T01:58:01;1.33;;;0.90;;
23449;SDS011;11897;45.438;12.128;2022-09-13T02:00:35;0.40;;;0.40;;
23449;SDS011;11897;45.438;12.128;2022-09-13T02:03:03;3.00;;;1.17;;
23449;SDS011;11897;45.438;12.128;2022-09-13T02:05:32;2.10;;;0.97;;
23449;SDS011;11897;45.438;12.128;2022-09-13T02:08:02;0.50;;;0.50;;
23449;SDS011;11897;45.438;12.128;2022-09-13T02:10:32;0.53;;;0.53;;
23449;SDS011;11897;45.438;12.128;2022-09-13T02:13:00;0.63;;;0.60;;
23449;SDS011;11897;45.438;12.128;2022-09-13T02:15:31;0.87;;;0.70;;
23449;SDS011;11897;45.438;12.128;2022-09-13T02:18:02;0.40;;;0.40;;
23449;SDS011;11897;45.438;12.128;2022-09-13T02:20:31;1.57;;;0.70;;
23449;SDS011;11897;45.438;12.128;2022-09-13T02:23:00;0.90;;;0.60;;
23449;SDS011;11897;45.438;12.128;2022-09-13T02:25:27;0.77;;;0.70;;
23449;SDS011;11897;45.438;12.128;2022-09-13T02:27:57;0.73;;;0.70;;
23449;SDS011;11897;45.438;12.128;2022-09-13T02:30:26;0.50;;;0.50;;
23449;SDS011;11897;45.438;12.128;2022-09-13T02:32:55;0.67;;;0.60;;
23449;SDS011;11897;45.438;12.128;2022-09-13T02:35:25;2.63;;;0.60;;
23449;SDS011;11897;45.438;12.128;2022-09-13T02:37:59;1.33;;;0.90;;
23449;SDS011;11897;45.438;12.128;2022-09-13T02:40:27;0.50;;;0.40;;
23449;SDS011;11897;45.438;12.128;2022-09-13T02:42:59;1.03;;;0.80;;
23449;SDS011;11897;45.438;12.128;2022-09-13T02:45:28;0.80;;;0.70;;
23449;SDS011;11897;45.438;12.128;2022-09-13T02:47:57;0.87;;;0.53;;
23449;SDS011;11897;45.438;12.128;2022-09-13T02:50:31;1.17;;;0.60;;
23449;SDS011;11897;45.438;12.128;2022-09-13T02:53:01;0.87;;;0.80;;
23449;SDS011;11897;45.438;12.128;2022-09-13T02:55:29;5.00;;;0.73;;
23449;SDS011;11897;45.438;12.128;2022-09-13T02:57:58;1.17;;;0.67;;
23449;SDS011;11897;45.438;12.128;2022-09-13T03:00:26;0.83;;;0.83;;
23449;SDS011;11897;45.438;12.128;2022-09-13T03:02:53;1.47;;;1.37;;
23449;SDS011;11897;45.438;12.128;2022-09-13T03:05:21;1.10;;;1.00;;
23449;SDS011;11897;45.438;12.128;2022-09-13T03:07:49;2.77;;;1.40;;
23449;SDS011;11897;45.438;12.128;2022-09-13T03:10:17;1.20;;;0.90;;
23449;SDS011;11897;45.438;12.128;2022-09-13T03:12:51;1.70;;;1.10;;
23449;SDS011;11897;45.438;12.128;2022-09-13T03:15:21;2.07;;;1.33;;
23449;SDS011;11897;45.438;12.128;2022-09-13T03:17:52;1.70;;;0.90;;
23449;SDS011;11897;45.438;12.128;2022-09-13T03:20:23;2.17;;;1.57;;
23449;SDS011;11897;45.438;12.128;2022-09-13T03:23:05;1.63;;;0.90;;
23449;SDS011;11897;45.438;12.128;2022-09-13T03:25:39;1.30;;;1.10;;
23449;SDS011;11897;45.438;12.128;2022-09-13T03:28:09;0.83;;;0.60;;
23449;SDS011;11897;45.438;12.128;2022-09-13T03:30:40;1.10;;;0.90;;
23449;SDS011;11897;45.438;12.128;2022-09-13T03:33:11;1.40;;;1.10;;
23449;SDS011;11897;45.438;12.128;2022-09-13T03:35:41;1.73;;;0.90;;
23449;SDS011;11897;45.438;12.128;2022-09-13T03:38:12;2.13;;;0.80;;
23449;SDS011;11897;45.438;12.128;2022-09-13T03:40:42;0.83;;;0.80;;
23449;SDS011;11897;45.438;12.128;2022-09-13T03:43:11;1.20;;;0.90;;
23449;SDS011;11897;45.438;12.128;2022-09-13T03:45:40;2.43;;;0.93;;
23449;SDS011;11897;45.438;12.128;2022-09-13T03:48:08;0.93;;;0.80;;
23449;SDS011;11897;45.438;12.128;2022-09-13T03:50:36;1.00;;;0.70;;
23449;SDS011;11897;45.438;12.128;2022-09-13T03:53:03;0.60;;;0.50;;
23449;SDS011;11897;45.438;12.128;2022-09-13T03:55:33;1.47;;;0.90;;
23449;SDS011;11897;45.438;12.128;2022-09-13T03:58:03;1.47;;;1.13;;
23449;SDS011;11897;45.438;12.128;2022-09-13T04:00:29;1.30;;;0.93;;
23449;SDS011;11897;45.438;12.128;2022-09-13T04:02:56;0.80;;;0.80;;
23449;SDS011;11897;45.438;12.128;2022-09-13T04:05:25;1.73;;;0.90;;
23449;SDS011;11897;45.438;12.128;2022-09-13T04:07:52;0.90;;;0.90;;
23449;SDS011;11897;45.438;12.128;2022-09-13T04:10:19;1.70;;;1.03;;
23449;SDS011;11897;45.438;12.128;2022-09-13T04:12:47;1.13;;;0.80;;
23449;SDS011;11897;45.438;12.128;2022-09-13T04:15:13;0.70;;;0.60;;
23449;SDS011;11897;45.438;12.128;2022-09-13T04:17:41;3.33;;;0.60;;
23449;SDS011;11897;45.438;12.128;2022-09-13T04:20:07;3.70;;;1.00;;
23449;SDS011;11897;45.438;12.128;2022-09-13T04:22:35;0.60;;;0.50;;
23449;SDS011;11897;45.438;12.128;2022-09-13T04:25:02;1.10;;;0.70;;
23449;SDS011;11897;45.438;12.128;2022-09-13T04:27:29;1.00;;;0.90;;
23449;SDS011;11897;45.438;12.128;2022-09-13T04:29:57;0.70;;;0.70;;
23449;SDS011;11897;45.438;12.128;2022-09-13T04:32:24;1.20;;;0.63;;
23449;SDS011;11897;45.438;12.128;2022-09-13T04:34:51;0.73;;;0.60;;
23449;SDS011;11897;45.438;12.128;2022-09-13T04:37:18;1.37;;;0.67;;
23449;SDS011;11897;45.438;12.128;2022-09-13T04:39:45;1.13;;;1.00;;
23449;SDS011;11897;45.438;12.128;2022-09-13T04:42:12;1.27;;;1.00;;
23449;SDS011;11897;45.438;12.128;2022-09-13T04:44:38;1.13;;;1.00;;
23449;SDS011;11897;45.438;12.128;2022-09-13T04:47:07;0.87;;;0.80;;
23449;SDS011;11897;45.438;12.128;2022-09-13T04:49:34;1.30;;;0.97;;
23449;SDS011;11897;45.438;12.128;2022-09-13T04:52:00;0.80;;;0.70;;
23449;SDS011;11897;45.438;12.128;2022-09-13T04:54:27;1.10;;;0.90;;
23449;SDS011;11897;45.438;12.128;2022-09-13T04:56:54;1.00;;;0.77;;
23449;SDS011;11897;45.438;12.128;2022-09-13T04:59:20;1.00;;;0.90;;
23449;SDS011;11897;45.438;12.128;2022-09-13T05:01:47;1.63;;;1.13;;
23449;SDS011;11897;45.438;12.128;2022-09-13T05:04:15;1.40;;;1.00;;
23449;SDS011;11897;45.438;12.128;2022-09-13T05:06:42;1.50;;;0.97;;
23449;SDS011;11897;45.438;12.128;2022-09-13T05:09:09;1.07;;;0.93;;
23449;SDS011;11897;45.438;12.128;2022-09-13T05:11:38;2.90;;;1.00;;
23449;SDS011;11897;45.438;12.128;2022-09-13T05:14:08;1.63;;;1.00;;
23449;SDS011;11897;45.438;12.128;2022-09-13T05:16:35;1.40;;;1.13;;
23449;SDS011;11897;45.438;12.128;2022-09-13T05:19:02;1.40;;;1.27;;
23449;SDS011;11897;45.438;12.128;2022-09-13T05:21:33;1.67;;;1.20;;
23449;SDS011;11897;45.438;12.128;2022-09-13T05:24:01;1.80;;;1.20;;
23449;SDS011;11897;45.438;12.128;2022-09-13T05:26:31;2.50;;;1.20;;
23449;SDS011;11897;45.438;12.128;2022-09-13T05:28:58;1.63;;;1.00;;
23449;SDS011;11897;45.438;12.128;2022-09-13T05:31:29;1.30;;;1.00;;
23449;SDS011;11897;45.438;12.128;2022-09-13T05:33:57;1.80;;;1.10;;
23449;SDS011;11897;45.438;12.128;2022-09-13T05:36:24;1.83;;;1.23;;
23449;SDS011;11897;45.438;12.128;2022-09-13T05:38:52;2.13;;;1.27;;
23449;SDS011;11897;45.438;12.128;2022-09-13T05:41:19;2.17;;;1.37;;
23449;SDS011;11897;45.438;12.128;2022-09-13T05:43:46;1.37;;;1.03;;
23449;SDS011;11897;45.438;12.128;2022-09-13T05:46:13;1.37;;;1.13;;
23449;SDS011;11897;45.438;12.128;2022-09-13T05:48:40;2.77;;;1.20;;
23449;SDS011;11897;45.438;12.128;2022-09-13T05:51:08;2.67;;;0.70;;
23449;SDS011;11897;45.438;12.128;2022-09-13T05:53:35;1.37;;;0.80;;
23449;SDS011;11897;45.438;12.128;2022-09-13T05:56:03;1.30;;;0.97;;
23449;SDS011;11897;45.438;12.128;2022-09-13T05:58:30;1.37;;;1.10;;
23449;SDS011;11897;45.438;12.128;2022-09-13T06:00:58;3.13;;;1.37;;
23449;SDS011;11897;45.438;12.128;2022-09-13T06:03:24;1.50;;;0.90;;
23449;SDS011;11897;45.438;12.128;2022-09-13T06:05:53;1.63;;;0.83;;
23449;SDS011;11897;45.438;12.128;2022-09-13T06:08:20;1.27;;;0.87;;
23449;SDS011;11897;45.438;12.128;2022-09-13T06:10:52;1.10;;;0.87;;
23449;SDS011;11897;45.438;12.128;2022-09-13T06:13:20;1.80;;;0.90;;
23449;SDS011;11897;45.438;12.128;2022-09-13T06:15:47;2.60;;;0.97;;
23449;SDS011;11897;45.438;12.128;2022-09-13T06:18:15;1.13;;;0.83;;
23449;SDS011;11897;45.438;12.128;2022-09-13T06:20:42;1.40;;;0.67;;
23449;SDS011;11897;45.438;12.128;2022-09-13T06:23:09;1.67;;;1.00;;
23449;SDS011;11897;45.438;12.128;2022-09-13T06:25:35;1.03;;;0.80;;
23449;SDS011;11897;45.438;12.128;2022-09-13T06:28:02;1.60;;;0.90;;
23449;SDS011;11897;45.438;12.128;2022-09-13T06:30:30;3.23;;;1.10;;
23449;SDS011;11897;45.438;12.128;2022-09-13T06:32:57;1.60;;;1.07;;
23449;SDS011;11897;45.438;12.128;2022-09-13T06:35:23;2.40;;;0.97;;
23449;SDS011;11897;45.438;12.128;2022-09-13T06:37:50;1.10;;;0.97;;
23449;SDS011;11897;45.438;12.128;2022-09-13T06:40:20;2.27;;;0.90;;
23449;SDS011;11897;45.438;12.128;2022-09-13T06:42:46;1.70;;;1.03;;
23449;SDS011;11897;45.438;12.128;2022-09-13T06:45:13;2.17;;;0.90;;
23449;SDS011;11897;45.438;12.128;2022-09-13T06:47:41;1.27;;;1.00;;
23449;SDS011;11897;45.438;12.128;2022-09-13T06:50:08;1.85;;;1.30;;
23449;SDS011;11897;45.438;12.128;2022-09-13T06:52:35;1.83;;;0.80;;
23449;SDS011;11897;45.438;12.128;2022-09-13T06:55:01;3.58;;;0.95;;
23449;SDS011;11897;45.438;12.128;2022-09-13T06:57:28;1.08;;;0.70;;
23449;SDS011;11897;45.438;12.128;2022-09-13T06:59:55;0.93;;;0.60;;
23449;SDS011;11897;45.438;12.128;2022-09-13T07:02:22;1.45;;;0.70;;
23449;SDS011;11897;45.438;12.128;2022-09-13T07:04:50;1.80;;;1.00;;
23449;SDS011;11897;45.438;12.128;2022-09-13T07:07:17;1.17;;;0.75;;
23449;SDS011;11897;45.438;12.128;2022-09-13T07:09:43;0.60;;;0.50;;
23449;SDS011;11897;45.438;12.128;2022-09-13T07:12:10;0.80;;;0.60;;
23449;SDS011;11897;45.438;12.128;2022-09-13T07:14:37;2.25;;;0.73;;
23449;SDS011;11897;45.438;12.128;2022-09-13T07:17:03;1.35;;;0.65;;
23449;SDS011;11897;45.438;12.128;2022-09-13T07:19:30;0.77;;;0.50;;
23449;SDS011;11897;45.438;12.128;2022-09-13T07:21:58;0.73;;;0.55;;
23449;SDS011;11897;45.438;12.128;2022-09-13T07:24:25;0.50;;;0.50;;
23449;SDS011;11897;45.438;12.128;2022-09-13T07:26:52;0.75;;;0.60;;
23449;SDS011;11897;45.438;12.128;2022-09-13T07:29:19;0.63;;;0.50;;
23449;SDS011;11897;45.438;12.128;2022-09-13T07:31:47;0.50;;;0.50;;
23449;SDS011;11897;45.438;12.128;2022-09-13T07:34:15;0.80;;;0.50;;
23449;SDS011;11897;45.438;12.128;2022-09-13T07:36:42;0.65;;;0.40;;
23449;SDS011;11897;45.438;12.128;2022-09-13T07:39:10;0.40;;;0.40;;
23449;SDS011;11897;45.438;12.128;2022-09-13T07:41:37;1.33;;;0.50;;
23449;SDS011;11897;45.438;12.128;2022-09-13T07:44:03;0.85;;;0.30;;
23449;SDS011;11897;45.438;12.128;2022-09-13T07:46:32;0.25;;;0.25;;
23449;SDS011;11897;45.438;12.128;2022-09-13T07:49:00;0.15;;;0.15;;
23449;SDS011;11897;45.438;12.128;2022-09-13T07:51:28;0.40;;;0.40;;
23449;SDS011;11897;45.438;12.128;2022-09-13T07:53:56;0.20;;;0.20;;
23449;SDS011;11897;45.438;12.128;2022-09-13T07:56:24;0.28;;;0.22;;
23449;SDS011;11897;45.438;12.128;2022-09-13T07:58:52;0.43;;;0.20;;
23449;SDS011;11897;45.438;12.128;2022-09-13T08:01:21;0.55;;;0.30;;
23449;SDS011;11897;45.438;12.128;2022-09-13T08:03:49;0.30;;;0.30;;
23449;SDS011;11897;45.438;12.128;2022-09-13T08:06:16;0.77;;;0.38;;
23449;SDS011;11897;45.438;12.128;2022-09-13T08:08:43;0.63;;;0.30;;
23449;SDS011;11897;45.438;12.128;2022-09-13T08:11:12;1.27;;;0.70;;
23449;SDS011;11897;45.438;12.128;2022-09-13T08:13:41;0.30;;;0.30;;
23449;SDS011;11897;45.438;12.128;2022-09-13T08:16:08;0.35;;;0.35;;
23449;SDS011;11897;45.438;12.128;2022-09-13T08:18:34;1.13;;;0.60;;
23449;SDS011;11897;45.438;12.128;2022-09-13T08:21:01;0.65;;;0.35;;
23449;SDS011;11897;45.438;12.128;2022-09-13T08:23:28;0.40;;;0.40;;
23449;SDS011;11897;45.438;12.128;2022-09-13T08:25:59;0.32;;;0.30;;
23449;SDS011;11897;45.438;12.128;2022-09-13T08:28:25;2.38;;;0.68;;
23449;SDS011;11897;45.438;12.128;2022-09-13T08:30:53;0.38;;;0.20;;
23449;SDS011;11897;45.438;12.128;2022-09-13T08:33:20;0.57;;;0.38;;
23449;SDS011;11897;45.438;12.128;2022-09-13T08:35:50;0.20;;;0.20;;
23449;SDS011;11897;45.438;12.128;2022-09-13T08:38:17;0.30;;;0.30;;
23449;SDS011;11897;45.438;12.128;2022-09-13T08:40:44;0.55;;;0.55;;
23449;SDS011;11897;45.438;12.128;2022-09-13T08:43:15;0.15;;;0.15;;
23449;SDS011;11897;45.438;12.128;2022-09-13T08:45:47;0.20;;;0.20;;
23449;SDS011;11897;45.438;12.128;2022-09-13T08:48:17;0.50;;;0.40;;
23449;SDS011;11897;45.438;12.128;2022-09-13T08:50:46;0.20;;;0.20;;
23449;SDS011;11897;45.438;12.128;2022-09-13T08:53:16;0.28;;;0.28;;
23449;SDS011;11897;45.438;12.128;2022-09-13T08:55:46;0.32;;;0.30;;
23449;SDS011;11897;45.438;12.128;2022-09-13T08:58:22;0.17;;;0.17;;
23449;SDS011;11897;45.438;12.128;2022-09-13T09:00:51;0.43;;;0.30;;
23449;SDS011;11897;45.438;12.128;2022-09-13T09:03:23;0.32;;;0.30;;
23449;SDS011;11897;45.438;12.128;2022-09-13T09:05:51;0.40;;;0.40;;
23449;SDS011;11897;45.438;12.128;2022-09-13T09:08:25;0.20;;;0.20;;
23449;SDS011;11897;45.438;12.128;2022-09-13T09:10:53;1.65;;;0.52;;
23449;SDS011;11897;45.438;12.128;2022-09-13T09:13:22;0.43;;;0.30;;
23449;SDS011;11897;45.438;12.128;2022-09-13T09:15:52;0.10;;;0.10;;
23449;SDS011;11897;45.438;12.128;2022-09-13T09:18:22;0.15;;;0.15;;
23449;SDS011;11897;45.438;12.128;2022-09-13T09:20:50;1.23;;;0.73;;
23449;SDS011;11897;45.438;12.128;2022-09-13T09:23:18;0.17;;;0.17;;
23449;SDS011;11897;45.438;12.128;2022-09-13T09:25:45;0.22;;;0.22;;
23449;SDS011;11897;45.438;12.128;2022-09-13T09:28:13;1.10;;;0.10;;
23449;SDS011;11897;45.438;12.128;2022-09-13T09:30:42;0.10;;;0.10;;
23449;SDS011;11897;45.438;12.128;2022-09-13T09:36:01;0.03;;;0.03;;
23449;SDS011;11897;45.438;12.128;2022-09-13T09:38:33;0.20;;;0.20;;
23449;SDS011;11897;45.438;12.128;2022-09-13T09:41:03;0.00;;;0.00;;
23449;SDS011;11897;45.438;12.128;2022-09-13T09:43:31;0.20;;;0.20;;
23449;SDS011;11897;45.438;12.128;2022-09-13T09:45:59;0.10;;;0.10;;
23449;SDS011;11897;45.438;12.128;2022-09-13T09:48:28;0.20;;;0.20;;
23449;SDS011;11897;45.438;12.128;2022-09-13T09:50:56;0.10;;;0.10;;
23449;SDS011;11897;45.438;12.128;2022-09-13T09:53:25;0.20;;;0.20;;
23449;SDS011;11897;45.438;12.128;2022-09-13T09:55:54;0.15;;;0.15;;
23449;SDS011;11897;45.438;12.128;2022-09-13T09:58:35;0.00;;;0.00;;
23449;SDS011;11897;45.438;12.128;2022-09-13T10:01:02;0.05;;;0.05;;
23449;SDS011;11897;45.438;12.128;2022-09-13T10:03:31;0.10;;;0.10;;
23449;SDS011;11897;45.438;12.128;2022-09-13T10:06:04;0.10;;;0.10;;
23449;SDS011;11897;45.438;12.128;2022-09-13T10:08:33;0.17;;;0.17;;
23449;SDS011;11897;45.438;12.128;2022-09-13T10:11:01;0.10;;;0.10;;
23449;SDS011;11897;45.438;12.128;2022-09-13T10:13:28;0.10;;;0.10;;
23449;SDS011;11897;45.438;12.128;2022-09-13T10:15:57;0.22;;;0.17;;
23449;SDS011;11897;45.438;12.128;2022-09-13T10:18:25;0.20;;;0.20;;
23449;SDS011;11897;45.438;12.128;2022-09-13T10:21:01;1.58;;;0.32;;
23449;SDS011;11897;45.438;12.128;2022-09-13T10:23:28;0.20;;;0.20;;
23449;SDS011;11897;45.438;12.128;2022-09-13T10:25:58;0.43;;;0.10;;
23449;SDS011;11897;45.438;12.128;2022-09-13T10:28:26;0.20;;;0.10;;
23449;SDS011;11897;45.438;12.128;2022-09-13T10:30:55;0.20;;;0.20;;
23449;SDS011;11897;45.438;12.128;2022-09-13T10:33:26;0.10;;;0.10;;
23449;SDS011;11897;45.438;12.128;2022-09-13T10:35:54;0.10;;;0.10;;
23449;SDS011;11897;45.438;12.128;2022-09-13T10:38:23;0.10;;;0.10;;
23449;SDS011;11897;45.438;12.128;2022-09-13T10:40:51;0.20;;;0.20;;
23449;SDS011;11897;45.438;12.128;2022-09-13T10:43:20;0.50;;;0.20;;
23449;SDS011;11897;45.438;12.128;2022-09-13T10:45:48;0.17;;;0.17;;
23449;SDS011;11897;45.438;12.128;2022-09-13T10:48:16;0.20;;;0.20;;
23449;SDS011;11897;45.438;12.128;2022-09-13T10:50:58;0.20;;;0.20;;
23449;SDS011;11897;45.438;12.128;2022-09-13T10:53:29;0.10;;;0.10;;
23449;SDS011;11897;45.438;12.128;2022-09-13T10:55:57;0.20;;;0.20;;
23449;SDS011;11897;45.438;12.128;2022-09-13T10:58:28;0.00;;;0.00;;
23449;SDS011;11897;45.438;12.128;2022-09-13T11:03:40;1.95;;;0.30;;
23449;SDS011;11897;45.438;12.128;2022-09-13T11:06:10;0.20;;;0.20;;
23449;SDS011;11897;45.438;12.128;2022-09-13T11:08:41;0.60;;;0.43;;
23449;SDS011;11897;45.438;12.128;2022-09-13T11:11:16;0.17;;;0.10;;
23449;SDS011;11897;45.438;12.128;2022-09-13T11:13:51;0.20;;;0.20;;
23449;SDS011;11897;45.438;12.128;2022-09-13T11:16:23;0.45;;;0.35;;
23449;SDS011;11897;45.438;12.128;2022-09-13T11:18:58;0.20;;;0.20;;
23449;SDS011;11897;45.438;12.128;2022-09-13T11:21:30;0.20;;;0.20;;
23449;SDS011;11897;45.438;12.128;2022-09-13T11:24:13;0.20;;;0.20;;
23449;SDS011;11897;45.438;12.128;2022-09-13T11:26:45;0.20;;;0.20;;
23449;SDS011;11897;45.438;12.128;2022-09-13T11:29:19;0.20;;;0.20;;
23449;SDS011;11897;45.438;12.128;2022-09-13T11:31:50;0.20;;;0.20;;
23449;SDS011;11897;45.438;12.128;2022-09-13T11:34:27;0.20;;;0.20;;
23449;SDS011;11897;45.438;12.128;2022-09-13T11:37:01;0.10;;;0.10;;
23449;SDS011;11897;45.438;12.128;2022-09-13T11:39:31;0.20;;;0.17;;
23449;SDS011;11897;45.438;12.128;2022-09-13T11:42:04;0.20;;;0.20;;
23449;SDS011;11897;45.438;12.128;2022-09-13T11:47:32;0.20;;;0.20;;
23449;SDS011;11897;45.438;12.128;2022-09-13T11:50:12;0.57;;;0.10;;
23449;SDS011;11897;45.438;12.128;2022-09-13T11:52:49;0.10;;;0.10;;
23449;SDS011;11897;45.438;12.128;2022-09-13T11:55:20;0.20;;;0.20;;
23449;SDS011;11897;45.438;12.128;2022-09-13T11:57:48;0.15;;;0.15;;
23449;SDS011;11897;45.438;12.128;2022-09-13T12:00:18;0.13;;;0.10;;
23449;SDS011;11897;45.438;12.128;2022-09-13T12:02:48;0.10;;;0.10;;
23449;SDS011;11897;45.438;12.128;2022-09-13T12:05:17;0.20;;;0.20;;
23449;SDS011;11897;45.438;12.128;2022-09-13T12:07:48;0.17;;;0.17;;
23449;SDS011;11897;45.438;12.128;2022-09-13T12:10:17;0.20;;;0.20;;
23449;SDS011;11897;45.438;12.128;2022-09-13T12:12:45;0.20;;;0.20;;
23449;SDS011;11897;45.438;12.128;2022-09-13T12:15:17;0.10;;;0.10;;
23449;SDS011;11897;45.438;12.128;2022-09-13T12:17:48;0.10;;;0.10;;
23449;SDS011;11897;45.438;12.128;2022-09-13T12:20:19;0.28;;;0.28;;
23449;SDS011;11897;45.438;12.128;2022-09-13T12:22:48;0.30;;;0.30;;
23449;SDS011;11897;45.438;12.128;2022-09-13T12:25:19;0.20;;;0.20;;
23449;SDS011;11897;45.438;12.128;2022-09-13T12:27:49;0.13;;;0.13;;
23449;SDS011;11897;45.438;12.128;2022-09-13T12:30:19;0.17;;;0.17;;
23449;SDS011;11897;45.438;12.128;2022-09-13T12:32:48;0.10;;;0.10;;
23449;SDS011;11897;45.438;12.128;2022-09-13T12:35:20;0.30;;;0.30;;
23449;SDS011;11897;45.438;12.128;2022-09-13T12:37:54;1.38;;;1.00;;
23449;SDS011;11897;45.438;12.128;2022-09-13T12:40:36;1.58;;;0.75;;
23449;SDS011;11897;45.438;12.128;2022-09-13T12:43:14;0.10;;;0.10;;
23449;SDS011;11897;45.438;12.128;2022-09-13T12:45:58;0.80;;;0.38;;
23449;SDS011;11897;45.438;12.128;2022-09-13T12:48:39;0.52;;;0.20;;
23449;SDS011;11897;45.438;12.128;2022-09-13T12:51:19;0.10;;;0.10;;
23449;SDS011;11897;45.438;12.128;2022-09-13T12:53:56;0.25;;;0.20;;
23449;SDS011;11897;45.438;12.128;2022-09-13T12:59:20;0.20;;;0.13;;
23449;SDS011;11897;45.438;12.128;2022-09-13T13:01:50;0.20;;;0.20;;
23449;SDS011;11897;45.438;12.128;2022-09-13T13:04:20;0.10;;;0.10;;
23449;SDS011;11897;45.438;12.128;2022-09-13T13:06:48;0.10;;;0.10;;
23449;SDS011;11897;45.438;12.128;2022-09-13T13:09:21;0.10;;;0.10;;
23449;SDS011;11897;45.438;12.128;2022-09-13T13:11:48;0.35;;;0.35;;
23449;SDS011;11897;45.438;12.128;2022-09-13T13:14:26;0.00;;;0.00;;
23449;SDS011;11897;45.438;12.128;2022-09-13T13:16:54;0.10;;;0.10;;
23449;SDS011;11897;45.438;12.128;2022-09-13T13:19:42;0.10;;;0.10;;
23449;SDS011;11897;45.438;12.128;2022-09-13T13:24:54;0.20;;;0.20;;
23449;SDS011;11897;45.438;12.128;2022-09-13T13:27:37;0.15;;;0.15;;
23449;SDS011;11897;45.438;12.128;2022-09-13T13:35:38;0.20;;;0.20;;
23449;SDS011;11897;45.438;12.128;2022-09-13T13:38:16;0.15;;;0.15;;
23449;SDS011;11897;45.438;12.128;2022-09-13T13:40:51;0.13;;;0.13;;
23449;SDS011;11897;45.438;12.128;2022-09-13T13:43:31;0.25;;;0.00;;
23449;SDS011;11897;45.438;12.128;2022-09-13T13:48:40;0.10;;;0.10;;
23449;SDS011;11897;45.438;12.128;2022-09-13T13:51:31;0.10;;;0.10;;
23449;SDS011;11897;45.438;12.128;2022-09-13T13:54:02;2.17;;;0.10;;
23449;SDS011;11897;45.438;12.128;2022-09-13T13:56:31;0.30;;;0.10;;
23449;SDS011;11897;45.438;12.128;2022-09-13T13:59:02;0.10;;;0.10;;
23449;SDS011;11897;45.438;12.128;2022-09-13T14:01:31;0.10;;;0.10;;
23449;SDS011;11897;45.438;12.128;2022-09-13T14:04:08;0.00;;;0.00;;
23449;SDS011;11897;45.438;12.128;2022-09-13T14:06:39;0.10;;;0.10;;
23449;SDS011;11897;45.438;12.128;2022-09-13T14:09:13;0.10;;;0.10;;
23449;SDS011;11897;45.438;12.128;2022-09-13T14:11:46;0.10;;;0.10;;
23449;SDS011;11897;45.438;12.128;2022-09-13T14:14:24;0.25;;;0.20;;
23449;SDS011;11897;45.438;12.128;2022-09-13T14:16:59;0.15;;;0.15;;
23449;SDS011;11897;45.438;12.128;2022-09-13T14:19:30;0.25;;;0.20;;
23449;SDS011;11897;45.438;12.128;2022-09-13T14:22:09;0.10;;;0.10;;
23449;SDS011;11897;45.438;12.128;2022-09-13T14:24:41;0.10;;;0.10;;
23449;SDS011;11897;45.438;12.128;2022-09-13T14:27:14;0.20;;;0.20;;
23449;SDS011;11897;45.438;12.128;2022-09-13T14:29:43;0.10;;;0.10;;
23449;SDS011;11897;45.438;12.128;2022-09-13T14:32:10;0.40;;;0.10;;
23449;SDS011;11897;45.438;12.128;2022-09-13T14:34:48;0.10;;;0.10;;
23449;SDS011;11897;45.438;12.128;2022-09-13T14:37:17;0.73;;;0.22;;
23449;SDS011;11897;45.438;12.128;2022-09-13T14:39:52;0.10;;;0.10;;
23449;SDS011;11897;45.438;12.128;2022-09-13T14:42:19;0.10;;;0.10;;
23449;SDS011;11897;45.438;12.128;2022-09-13T14:44:46;0.10;;;0.10;;
23449;SDS011;11897;45.438;12.128;2022-09-13T14:47:15;0.10;;;0.10;;
23449;SDS011;11897;45.438;12.128;2022-09-13T14:49:45;0.10;;;0.10;;
23449;SDS011;11897;45.438;12.128;2022-09-13T14:52:14;0.20;;;0.20;;
23449;SDS011;11897;45.438;12.128;2022-09-13T14:54:43;0.10;;;0.10;;
23449;SDS011;11897;45.438;12.128;2022-09-13T14:57:16;0.20;;;0.20;;
23449;SDS011;11897;45.438;12.128;2022-09-13T14:59:44;0.65;;;0.65;;
23449;SDS011;11897;45.438;12.128;2022-09-13T15:02:15;0.10;;;0.10;;
23449;SDS011;11897;45.438;12.128;2022-09-13T15:04:46;0.17;;;0.10;;
23449;SDS011;11897;45.438;12.128;2022-09-13T15:07:17;0.20;;;0.20;;
23449;SDS011;11897;45.438;12.128;2022-09-13T15:09:47;0.00;;;0.00;;
23449;SDS011;11897;45.438;12.128;2022-09-13T15:12:20;0.43;;;0.38;;
23449;SDS011;11897;45.438;12.128;2022-09-13T15:14:48;0.20;;;0.20;;
23449;SDS011;11897;45.438;12.128;2022-09-13T15:17:15;0.28;;;0.28;;